Time;durP1;ratioP1;P1;durP2;ratioP2;P2;SDS_P1;SDS_P2;PMS_P1;PMS_P2;Temp;Humidity;BMP_temperature;BMP_pressure;BME280_temperature;BME280_humidity;BME280_pressure;Samples;Min_cycle;Max_cycle;Signal;HPM_P1;HPM_P2
2021/12/02 00:01:04;;;;;;;1.60;1.50;;;-15.30;99.90;;;;;;5092135;28;20032;-61
2021/12/02 00:03:30;;;;;;;2.33;1.80;;;-15.30;99.90;;;;;;5091564;28;20028;-61
2021/12/02 00:05:56;;;;;;;1.48;1.38;;;-15.20;99.90;;;;;;5091750;28;20036;-62
2021/12/02 00:08:22;;;;;;;1.88;1.77;;;-15.20;99.90;;;;;;5091715;28;20048;-61
2021/12/02 00:10:47;;;;;;;2.00;1.90;;;-15.10;99.90;;;;;;5091679;28;20043;-61
2021/12/02 00:13:13;;;;;;;1.73;1.63;;;-15.10;99.90;;;;;;5091686;28;20036;-61
2021/12/02 00:15:53;;;;;;;4.25;1.85;;;-15.00;99.90;;;;;;5091954;28;20103;-61
2021/12/02 00:24:06;;;;;;;2.30;1.98;;;-14.90;99.90;;;;;;5095681;28;20035;-61
2021/12/02 00:26:35;;;;;;;4.07;1.95;;;-14.70;99.90;;;;;;5052695;28;20100;-61
2021/12/02 00:29:03;;;;;;;5.25;2.10;;;-14.60;99.90;;;;;;5087971;28;20040;-61
2021/12/02 00:31:32;;;;;;;4.63;2.20;;;-14.50;99.90;;;;;;5095285;28;20024;-62
2021/12/02 00:34:00;;;;;;;2.63;1.98;;;-14.40;99.90;;;;;;5094330;28;20103;-61
2021/12/02 00:36:28;;;;;;;1.65;1.55;;;-14.40;99.90;;;;;;5095514;28;20024;-61
2021/12/02 00:38:56;;;;;;;2.15;1.98;;;-14.40;99.90;;;;;;5095356;28;20024;-61
2021/12/02 00:41:27;;;;;;;4.65;2.03;;;-14.40;99.90;;;;;;5095386;28;20586;-61
2021/12/02 00:43:55;;;;;;;1.77;1.67;;;-14.30;99.90;;;;;;5095254;28;20034;-61
2021/12/02 00:46:23;;;;;;;2.15;2.00;;;-14.30;99.90;;;;;;5095218;28;20036;-61
2021/12/02 00:48:49;;;;;;;1.83;1.73;;;-14.20;99.90;;;;;;5095031;28;20039;-61
2021/12/02 00:51:17;;;;;;;1.75;1.65;;;-14.20;99.90;;;;;;5095157;28;20100;-61
2021/12/02 00:53:51;;;;;;;2.33;2.13;;;-14.10;99.90;;;;;;5094616;28;20099;-61
2021/12/02 00:56:17;;;;;;;1.58;1.48;;;-14.20;99.90;;;;;;5094926;28;20472;-61
2021/12/02 00:58:48;;;;;;;2.13;1.85;;;-14.20;99.90;;;;;;5094364;28;20040;-61
2021/12/02 01:01:16;;;;;;;3.83;1.88;;;-14.20;99.90;;;;;;5095027;28;20020;-61
2021/12/02 01:03:43;;;;;;;2.50;2.03;;;-14.10;99.90;;;;;;5094379;28;20472;-61
2021/12/02 01:06:09;;;;;;;2.08;1.90;;;-14.10;99.90;;;;;;5094772;28;20036;-61
2021/12/02 01:08:37;;;;;;;4.10;1.73;;;-14.00;99.90;;;;;;5094711;28;20067;-61
2021/12/02 01:11:09;;;;;;;2.42;1.70;;;-14.00;99.90;;;;;;5094551;28;20024;-62
2021/12/02 01:13:35;;;;;;;2.05;1.60;;;-13.90;99.90;;;;;;5094626;28;20102;-62
2021/12/02 01:16:01;;;;;;;1.58;1.48;;;-13.90;99.90;;;;;;5094428;28;20103;-62
2021/12/02 01:18:27;;;;;;;1.55;1.45;;;-13.80;99.90;;;;;;5094385;28;20077;-62
2021/12/02 01:20:53;;;;;;;2.85;1.70;;;-13.90;99.90;;;;;;5094154;28;20035;-62
2021/12/02 01:23:21;;;;;;;2.17;1.90;;;-13.80;99.90;;;;;;5094242;28;20028;-62
2021/12/02 01:25:53;;;;;;;2.67;1.88;;;-13.80;99.90;;;;;;5094085;28;20040;-62
2021/12/02 01:28:21;;;;;;;2.40;2.00;;;-13.80;99.90;;;;;;5094182;28;20019;-62
2021/12/02 01:30:49;;;;;;;1.98;1.70;;;-13.80;99.90;;;;;;5093779;28;20085;-62
2021/12/02 01:33:18;;;;;;;1.10;1.10;;;-13.70;99.90;;;;;;5094354;28;20107;-62
2021/12/02 01:35:49;;;;;;;4.05;1.83;;;-13.70;99.90;;;;;;5094076;28;20031;-62
2021/12/02 01:38:15;;;;;;;2.15;1.77;;;-13.60;99.90;;;;;;5094111;28;20031;-62
2021/12/02 01:40:43;;;;;;;2.67;1.63;;;-13.60;99.90;;;;;;5093893;28;20032;-62
2021/12/02 01:43:14;;;;;;;1.45;1.38;;;-13.60;99.90;;;;;;5092634;28;20470;-62
2021/12/02 01:45:40;;;;;;;2.75;2.10;;;-13.50;99.90;;;;;;5093857;28;20148;-62
2021/12/02 01:48:09;;;;;;;2.90;1.80;;;-13.50;99.90;;;;;;5094103;28;20024;-62
2021/12/02 01:50:40;;;;;;;2.15;1.58;;;-13.50;99.90;;;;;;5093598;28;20357;-62
2021/12/02 01:53:06;;;;;;;;;;;-13.40;99.90;;;;;;5094160;28;20027;-62
2021/12/02 01:55:35;;;;;;;1.70;1.60;;;-13.40;99.90;;;;;;5093789;28;19904;-62
2021/12/02 01:58:05;;;;;;;1.80;1.70;;;-13.40;99.90;;;;;;5093533;28;20077;-62
2021/12/02 02:00:46;;;;;;;1.88;1.77;;;-13.30;99.90;;;;;;5093429;28;20040;-62
2021/12/02 02:03:13;;;;;;;1.60;1.50;;;-13.30;99.90;;;;;;5093500;28;20028;-62
2021/12/02 02:05:40;;;;;;;2.05;1.70;;;-13.30;99.90;;;;;;5093215;28;20043;-62
2021/12/02 02:08:22;;;;;;;4.88;1.92;;;-13.30;99.90;;;;;;5092811;28;20028;-62
2021/12/02 02:10:49;;;;;;;1.50;1.40;;;-13.20;99.90;;;;;;5093692;28;20032;-62
2021/12/02 02:13:16;;;;;;;2.50;1.52;;;-13.20;99.90;;;;;;5093587;28;20024;-62
2021/12/02 02:15:46;;;;;;;2.30;1.75;;;-13.10;99.90;;;;;;5093063;28;20539;-62
2021/12/02 02:18:23;;;;;;;2.78;2.03;;;-13.10;99.90;;;;;;5093222;28;20024;-62
2021/12/02 02:21:25;;;;;;;1.45;1.35;;;-13.10;99.90;;;;;;5093168;28;20036;-62
2021/12/02 02:23:55;;;;;;;1.63;1.50;;;-13.10;99.90;;;;;;5091813;28;20032;-62
2021/12/02 02:55:25;;;;;;;4.07;1.77;;;-12.60;99.90;;;;;;5092372;28;20031;-62
2021/12/02 02:58:04;;;;;;;2.60;1.80;;;-12.60;99.90;;;;;;5092903;28;20031;-62
2021/12/02 03:00:34;;;;;;;1.88;1.50;;;-12.60;99.90;;;;;;5092359;28;20036;-62
2021/12/02 03:03:21;;;;;;;1.77;1.67;;;-12.50;99.90;;;;;;5092529;28;20548;-62
2021/12/02 03:08:32;;;;;;;1.48;1.38;;;-12.50;99.90;;;;;;5092515;28;20023;-62
2021/12/02 03:10:59;;;;;;;1.50;1.40;;;-12.40;99.90;;;;;;5092433;28;20115;-62
2021/12/02 03:18:56;;;;;;;1.60;1.50;;;-12.40;99.90;;;;;;5092150;28;20081;-62
2021/12/02 03:21:23;;;;;;;2.05;1.70;;;-12.30;99.90;;;;;;5092002;28;20028;-62
2021/12/02 03:23:54;;;;;;;2.20;2.00;;;-12.30;99.90;;;;;;5092128;28;20024;-62
2021/12/02 03:26:20;;;;;;;4.55;1.98;;;-12.30;99.90;;;;;;5091959;28;20032;-62
2021/12/02 03:28:48;;;;;;;4.13;1.65;;;-12.20;99.90;;;;;;5091985;28;20616;-62
2021/12/02 03:31:14;;;;;;;2.25;1.65;;;-12.20;99.90;;;;;;5091945;28;20076;-62
2021/12/02 03:33:41;;;;;;;4.40;2.38;;;-12.10;99.90;;;;;;5091981;28;20020;-62
2021/12/02 03:36:08;;;;;;;2.63;1.52;;;-12.10;99.90;;;;;;5091920;28;20020;-62
2021/12/02 03:38:34;;;;;;;1.83;1.42;;;-12.00;99.90;;;;;;5092049;28;20020;-62
2021/12/02 03:41:00;;;;;;;3.63;2.08;;;-12.00;99.90;;;;;;5092001;28;20111;-63
2021/12/02 03:43:27;;;;;;;3.45;1.77;;;-12.00;99.90;;;;;;5091881;28;20032;-62
2021/12/02 03:45:54;;;;;;;2.17;1.70;;;-12.00;99.90;;;;;;5091779;28;20117;-63
2021/12/02 03:48:20;;;;;;;2.10;1.90;;;-12.00;99.90;;;;;;5091662;28;20028;-63
2021/12/02 03:50:45;;;;;;;1.38;1.38;;;-12.00;99.90;;;;;;5091835;28;20020;-63
2021/12/02 03:53:11;;;;;;;6.22;2.00;;;-12.00;99.90;;;;;;5091628;28;20031;-63
2021/12/02 03:55:37;;;;;;;4.80;2.00;;;-12.00;99.90;;;;;;5095396;28;20032;-63
2021/12/02 03:58:03;;;;;;;3.10;1.67;;;-12.00;99.90;;;;;;5096158;28;20111;-63
2021/12/02 04:00:29;;;;;;;4.88;2.25;;;-12.00;99.90;;;;;;5095624;28;20052;-62
2021/12/02 04:02:55;;;;;;;1.88;1.60;;;-12.00;99.90;;;;;;5095794;28;20503;-62
2021/12/02 04:05:20;;;;;;;3.45;2.20;;;-11.90;99.90;;;;;;5095602;28;20471;-63
2021/12/02 04:07:46;;;;;;;3.95;2.10;;;-11.90;99.90;;;;;;5094580;28;20063;-61
2021/12/02 04:10:12;;;;;;;4.28;2.22;;;-11.90;99.90;;;;;;5095686;28;20073;-62
2021/12/02 04:12:59;;;;;;;5.10;1.85;;;-12.00;99.90;;;;;;5095693;28;20510;-61
2021/12/02 04:15:34;;;;;;;5.07;1.98;;;-12.00;99.90;;;;;;5095658;28;20012;-61
2021/12/02 04:18:00;;;;;;;5.63;2.13;;;-12.00;99.90;;;;;;5095438;28;20036;-61
2021/12/02 04:20:26;;;;;;;1.83;1.50;;;-12.00;99.90;;;;;;5095775;28;20027;-61
2021/12/02 04:22:54;;;;;;;7.57;1.90;;;-12.00;99.90;;;;;;5095462;28;20025;-61
2021/12/02 04:25:20;;;;;;;3.10;2.03;;;-11.90;99.90;;;;;;5095590;28;20062;-61
2021/12/02 04:27:47;;;;;;;3.65;2.00;;;-11.90;99.90;;;;;;5095522;28;20020;-61
2021/12/02 04:30:17;;;;;;;7.65;2.25;;;-11.90;99.90;;;;;;5095254;28;20054;-61
2021/12/02 04:32:43;;;;;;;5.55;2.22;;;-11.90;99.90;;;;;;5095754;28;20445;-61
2021/12/02 04:35:10;;;;;;;4.85;2.10;;;-11.90;99.90;;;;;;5095311;28;20024;-61
2021/12/02 04:37:35;;;;;;;5.32;2.20;;;-11.90;99.90;;;;;;5095387;28;20020;-61
2021/12/02 04:40:01;;;;;;;8.05;2.30;;;-11.90;99.90;;;;;;5095122;28;20020;-62
2021/12/02 04:42:27;;;;;;;2.25;2.05;;;-11.90;99.90;;;;;;5094888;28;20032;-61
2021/12/02 04:44:53;;;;;;;2.35;2.08;;;-11.90;99.90;;;;;;5094930;28;20038;-62
2021/12/02 04:47:18;;;;;;;5.13;2.33;;;-11.90;99.90;;;;;;5095232;28;20119;-62
2021/12/02 04:49:45;;;;;;;5.13;2.17;;;-11.90;99.90;;;;;;5095035;28;20043;-62
2021/12/02 04:52:11;;;;;;;2.33;1.95;;;-11.90;99.90;;;;;;5095171;28;20032;-62
2021/12/02 04:54:37;;;;;;;2.42;1.90;;;-11.90;99.90;;;;;;5093539;28;20369;-62
2021/12/02 04:57:03;;;;;;;2.97;2.20;;;-11.80;99.90;;;;;;5095125;28;20055;-61
2021/12/02 04:59:29;;;;;;;1.80;1.70;;;-11.90;99.90;;;;;;5094509;28;20048;-61
2021/12/02 05:01:54;;;;;;;2.10;1.63;;;-12.00;99.90;;;;;;5094697;28;20562;-61
2021/12/02 05:04:20;;;;;;;3.05;1.92;;;-12.10;99.90;;;;;;5094549;28;20021;-61
2021/12/02 05:06:46;;;;;;;3.65;2.10;;;-12.10;99.90;;;;;;5093890;28;20391;-61
2021/12/02 05:09:12;;;;;;;3.67;1.52;;;-12.10;99.90;;;;;;5094426;28;20066;-61
2021/12/02 05:11:38;;;;;;;2.30;2.05;;;-12.20;99.90;;;;;;5094372;28;20031;-61
2021/12/02 05:14:05;;;;;;;2.70;1.80;;;-12.20;99.90;;;;;;5094589;28;20031;-61
2021/12/02 05:16:30;;;;;;;6.57;1.90;;;-12.30;99.90;;;;;;5094390;28;20024;-61
2021/12/02 05:18:56;;;;;;;1.70;1.48;;;-12.30;99.90;;;;;;5076087;28;20506;-62
2021/12/02 05:21:22;;;;;;;2.65;1.85;;;-12.40;99.90;;;;;;5092860;28;20115;-62
2021/12/02 05:23:53;;;;;;;1.95;1.75;;;-12.40;99.90;;;;;;5094228;28;20028;-61
2021/12/02 05:26:19;;;;;;;2.25;1.88;;;-12.50;99.90;;;;;;5094306;28;20100;-60
2021/12/02 05:28:45;;;;;;;4.88;2.20;;;-12.50;99.90;;;;;;5094164;28;20020;-62
2021/12/02 05:31:10;;;;;;;2.75;1.90;;;-12.50;99.90;;;;;;5094180;28;20030;-60
2021/12/02 05:33:36;;;;;;;2.13;1.75;;;-12.50;99.90;;;;;;5093839;28;20027;-61
2021/12/02 05:36:02;;;;;;;2.08;1.85;;;-12.50;99.90;;;;;;5093636;28;20491;-62
2021/12/02 05:38:28;;;;;;;2.10;1.95;;;-12.50;99.90;;;;;;5093621;28;20032;-62
2021/12/02 05:40:53;;;;;;;3.15;1.95;;;-12.20;99.90;;;;;;5093136;28;20068;-62
2021/12/02 05:43:19;;;;;;;2.38;1.63;;;-11.60;99.90;;;;;;5093127;28;20027;-62
2021/12/02 05:45:45;;;;;;;6.50;2.13;;;-11.80;99.90;;;;;;5093341;28;20438;-61
2021/12/02 05:48:11;;;;;;;2.08;1.80;;;-12.10;99.90;;;;;;5100573;28;20027;-61
2021/12/02 05:50:37;;;;;;;4.50;2.10;;;-12.20;99.90;;;;;;5098720;28;20027;-61
2021/12/02 05:53:03;;;;;;;4.20;1.63;;;-12.30;99.90;;;;;;5096070;28;20024;-61
2021/12/02 05:55:28;;;;;;;1.85;1.70;;;-12.40;99.90;;;;;;5092567;28;20031;-61
2021/12/02 05:57:54;;;;;;;3.40;2.10;;;-12.50;99.90;;;;;;5093516;28;20031;-61
2021/12/02 06:00:20;;;;;;;2.03;1.83;;;-12.50;99.90;;;;;;5092708;28;20056;-61
2021/12/02 06:02:46;;;;;;;4.63;1.90;;;-12.40;99.90;;;;;;5104524;28;20031;-61
2021/12/02 06:05:19;;;;;;;2.30;2.00;;;-12.40;99.90;;;;;;5095320;28;20039;-61
2021/12/02 06:07:45;;;;;;;1.70;1.42;;;-12.40;99.90;;;;;;5092761;28;20047;-61
2021/12/02 06:10:11;;;;;;;5.07;1.90;;;-12.50;99.90;;;;;;5092837;28;20020;-61
2021/12/02 06:12:37;;;;;;;2.13;1.70;;;-12.60;99.90;;;;;;5092740;28;20035;-61
2021/12/02 06:15:03;;;;;;;2.58;1.58;;;-12.70;99.90;;;;;;5101180;28;20017;-64
2021/12/02 06:17:29;;;;;;;2.03;1.92;;;-12.70;99.90;;;;;;5092267;28;20082;-62
2021/12/02 06:19:54;;;;;;;3.50;1.70;;;-12.60;99.90;;;;;;5092977;28;20020;-61
2021/12/02 06:22:20;;;;;;;4.07;1.90;;;-12.60;99.90;;;;;;5092961;28;20662;-61
2021/12/02 06:24:53;;;;;;;1.95;1.77;;;-12.50;99.90;;;;;;5092988;28;20019;-61
2021/12/02 06:27:19;;;;;;;5.72;1.77;;;-12.50;99.90;;;;;;5093025;28;20042;-61
2021/12/02 06:29:45;;;;;;;1.60;1.50;;;-12.50;99.90;;;;;;5092906;28;20020;-61
2021/12/02 06:32:10;;;;;;;6.07;1.95;;;-12.20;99.90;;;;;;5093107;28;20028;-62
2021/12/02 06:34:36;;;;;;;2.35;1.77;;;-12.30;99.90;;;;;;5092835;28;20383;-61
2021/12/02 06:37:02;;;;;;;3.55;1.88;;;-12.30;99.90;;;;;;5092753;28;20444;-62
2021/12/02 06:39:28;;;;;;;2.80;2.00;;;-12.40;99.90;;;;;;5092515;28;20024;-61
2021/12/02 06:41:54;;;;;;;5.82;1.88;;;-12.40;99.90;;;;;;5092709;28;20034;-63
2021/12/02 06:44:19;;;;;;;2.15;1.95;;;-12.30;99.90;;;;;;5092492;28;20024;-61
2021/12/02 06:46:45;;;;;;;1.73;1.63;;;-12.30;99.90;;;;;;5092519;28;20039;-61
2021/12/02 06:49:11;;;;;;;5.13;1.80;;;-12.20;99.90;;;;;;5092515;28;20031;-62
2021/12/02 06:51:36;;;;;;;4.18;1.77;;;-11.90;99.90;;;;;;5092243;28;20076;-62
2021/12/02 06:54:04;;;;;;;2.42;1.63;;;-11.00;99.90;;;;;;5092597;28;20073;-62
2021/12/02 06:56:30;;;;;;;4.13;2.10;;;-11.30;99.90;;;;;;5092539;28;20032;-62
2021/12/02 06:58:56;;;;;;;2.97;1.77;;;-11.60;99.90;;;;;;5092297;28;20043;-62
2021/12/02 07:01:22;;;;;;;5.45;2.20;;;-11.80;99.90;;;;;;5092308;28;20056;-61
2021/12/02 07:03:48;;;;;;;3.67;2.13;;;-11.90;99.90;;;;;;5091155;28;20066;-62
2021/12/02 07:06:13;;;;;;;4.63;2.35;;;-12.00;99.90;;;;;;5091059;28;20498;-61
2021/12/02 07:08:39;;;;;;;9.57;2.55;;;-12.00;99.90;;;;;;5092082;28;20020;-62
2021/12/02 07:11:07;;;;;;;4.53;1.75;;;-12.10;99.90;;;;;;5092537;28;20024;-61
2021/12/02 07:13:35;;;;;;;2.15;1.95;;;-12.10;99.90;;;;;;5092034;28;20028;-62
2021/12/02 07:16:01;;;;;;;3.88;2.33;;;-12.20;99.90;;;;;;5092050;28;20032;-61
2021/12/02 07:18:27;;;;;;;4.78;2.28;;;-12.20;99.90;;;;;;5092005;28;20024;-62
2021/12/02 07:20:53;;;;;;;3.03;2.03;;;-12.20;99.90;;;;;;5092444;28;20034;-63
2021/12/02 07:23:21;;;;;;;3.72;2.38;;;-10.30;99.90;;;;;;5092263;28;20020;-61
2021/12/02 07:25:48;;;;;;;5.10;2.25;;;-10.30;99.90;;;;;;5092381;28;20434;-62
2021/12/02 07:28:16;;;;;;;2.78;1.90;;;-10.80;99.90;;;;;;5092294;28;20375;-62
2021/12/02 07:30:43;;;;;;;3.15;1.80;;;-11.10;99.90;;;;;;5091515;28;20476;-61
2021/12/02 07:33:10;;;;;;;4.07;2.20;;;-11.30;99.90;;;;;;5091987;28;20048;-62
2021/12/02 07:35:36;;;;;;;2.78;1.85;;;-11.50;99.90;;;;;;5091857;28;20098;-62
2021/12/02 07:38:03;;;;;;;3.15;1.83;;;-11.70;99.90;;;;;;5090171;28;20054;-62
2021/12/02 07:40:36;;;;;;;5.53;1.90;;;-11.80;99.90;;;;;;5091915;28;20375;-64
2021/12/02 07:43:03;;;;;;;5.07;1.85;;;-11.80;99.90;;;;;;5091866;28;20063;-62
2021/12/02 07:45:36;;;;;;;6.00;2.28;;;-11.20;99.90;;;;;;5103308;28;20262;-62
2021/12/02 07:48:07;;;;;;;3.60;1.80;;;-11.30;99.90;;;;;;5132477;28;20046;-62
2021/12/02 07:50:34;;;;;;;2.45;1.88;;;-11.40;99.90;;;;;;5132030;28;20031;-62
2021/12/02 07:53:04;;;;;;;3.58;2.05;;;-11.50;99.90;;;;;;5132498;28;20106;-61
2021/12/02 07:55:31;;;;;;;2.57;2.13;;;-11.60;99.90;;;;;;5132420;28;20020;-61
2021/12/02 07:57:57;;;;;;;3.75;1.90;;;-10.90;99.90;;;;;;5132417;28;20020;-62
2021/12/02 08:00:28;;;;;;;5.53;1.85;;;-10.70;99.90;;;;;;5132140;28;20047;-62
2021/12/02 08:02:55;;;;;;;2.88;1.92;;;-11.00;99.90;;;;;;5132578;28;20055;-62
2021/12/02 08:05:22;;;;;;;5.03;2.10;;;-11.20;99.90;;;;;;5132576;27;20030;-62
2021/12/02 08:07:48;;;;;;;4.65;2.08;;;-10.40;99.90;;;;;;5132260;27;20123;-62
2021/12/02 08:10:15;;;;;;;6.60;2.60;;;-10.00;99.90;;;;;;5112952;28;20051;-62
2021/12/02 08:12:47;;;;;;;9.60;3.15;;;-10.10;99.90;;;;;;5110870;28;20027;-62
2021/12/02 08:15:14;;;;;;;7.38;2.75;;;-10.50;99.90;;;;;;5111172;28;20028;-62
2021/12/02 08:17:40;;;;;;;6.00;2.55;;;-10.90;99.90;;;;;;5111607;28;20016;-62
2021/12/02 08:20:06;;;;;;;8.80;2.38;;;-11.20;99.90;;;;;;5111777;28;20356;-62
2021/12/02 08:22:32;;;;;;;2.58;2.15;;;-11.40;99.90;;;;;;5110977;28;20126;-62
2021/12/02 08:24:58;;;;;;;5.20;2.47;;;-11.50;99.90;;;;;;5114114;28;20170;-62
2021/12/02 08:27:24;;;;;;;4.00;2.15;;;-10.70;99.90;;;;;;5132060;28;20058;-62
2021/12/02 08:29:50;;;;;;;5.05;2.17;;;-10.70;99.90;;;;;;5125243;28;20031;-64
2021/12/02 08:32:16;;;;;;;2.67;1.90;;;-10.90;99.90;;;;;;5110438;28;20475;-62
2021/12/02 08:34:42;;;;;;;6.20;2.13;;;-11.20;99.90;;;;;;5111243;28;20034;-62
2021/12/02 08:37:09;;;;;;;2.83;1.90;;;-11.40;99.90;;;;;;5110646;28;20023;-62
2021/12/02 08:39:35;;;;;;;7.68;2.13;;;-11.50;99.90;;;;;;5111401;28;20491;-62
2021/12/02 08:42:02;;;;;;;4.95;2.53;;;-11.60;99.90;;;;;;5112701;28;20047;-61
2021/12/02 08:44:31;;;;;;;4.47;1.92;;;-11.60;99.90;;;;;;5114514;28;20035;-61
2021/12/02 08:46:57;;;;;;;20.90;8.02;;;-11.60;99.90;;;;;;5114240;28;20028;-62
2021/12/02 08:49:23;;;;;;;13.05;4.45;;;-11.60;99.90;;;;;;5115119;28;20020;-62
2021/12/02 08:51:51;;;;;;;2.88;2.22;;;-11.60;99.90;;;;;;5095910;28;20442;-62
2021/12/02 08:54:17;;;;;;;3.72;2.10;;;-11.50;99.90;;;;;;5094599;28;20032;-62
2021/12/02 08:56:43;;;;;;;2.35;2.08;;;-11.50;99.90;;;;;;5094252;28;20019;-62
2021/12/02 08:59:09;;;;;;;6.82;2.10;;;-11.50;99.90;;;;;;5094523;28;20048;-62
2021/12/02 09:01:36;;;;;;;6.75;2.45;;;-11.50;99.90;;;;;;5094497;28;20126;-62
2021/12/02 09:04:02;;;;;;;6.28;3.13;;;-11.20;99.90;;;;;;5094524;28;20020;-62
2021/12/02 09:06:29;;;;;;;3.95;2.08;;;-11.30;99.90;;;;;;5094177;28;20433;-62
2021/12/02 09:08:58;;;;;;;1.50;1.40;;;-11.40;99.90;;;;;;5094210;28;20070;-62
2021/12/02 09:11:23;;;;;;;5.90;2.15;;;-11.60;99.90;;;;;;5094471;28;20051;-62
2021/12/02 09:13:51;;;;;;;3.88;2.03;;;-11.70;99.90;;;;;;5094488;28;20514;-62
2021/12/02 09:16:17;;;;;;;1.90;1.63;;;-11.50;99.90;;;;;;5094113;28;20024;-63
2021/12/02 09:18:42;;;;;;;7.03;2.47;;;-11.50;99.90;;;;;;5094133;28;20024;-63
2021/12/02 09:21:08;;;;;;;4.32;2.42;;;-11.50;99.90;;;;;;5094597;28;20032;-62
2021/12/02 09:23:34;;;;;;;1.42;1.33;;;-11.50;99.90;;;;;;5094424;28;20456;-64
2021/12/02 09:26:00;;;;;;;2.90;1.63;;;-11.00;99.90;;;;;;5094042;28;20039;-62
2021/12/02 09:28:26;;;;;;;5.97;1.55;;;-9.40;99.90;;;;;;5094228;28;20020;-62
2021/12/02 09:30:52;;;;;;;3.17;1.92;;;-9.90;99.90;;;;;;5094112;28;20479;-62
2021/12/02 09:33:18;;;;;;;2.17;2.00;;;-10.30;99.90;;;;;;5094064;28;20020;-62
2021/12/02 09:35:44;;;;;;;2.03;1.83;;;-10.60;99.90;;;;;;5093995;28;20027;-62
2021/12/02 09:38:10;;;;;;;6.47;1.90;;;-10.80;99.90;;;;;;5094006;28;20027;-62
2021/12/02 09:40:39;;;;;;;2.03;1.80;;;-10.90;99.90;;;;;;5092704;28;20027;-62
2021/12/02 09:43:05;;;;;;;2.53;1.67;;;-11.00;99.90;;;;;;5094218;28;20024;-64
2021/12/02 09:45:30;;;;;;;1.58;1.48;;;-11.10;99.90;;;;;;5093675;28;20043;-63
2021/12/02 09:47:56;;;;;;;2.28;1.92;;;-11.20;99.90;;;;;;5094128;28;20021;-64
2021/12/02 09:50:36;;;;;;;3.10;1.98;;;-11.20;99.90;;;;;;5093662;28;20020;-63
2021/12/02 09:53:16;;;;;;;4.90;2.10;;;-11.20;99.90;;;;;;5093980;28;20376;-63
2021/12/02 09:58:12;;;;;;;1.70;1.52;;;-11.20;99.90;;;;;;5094021;28;20444;-63
2021/12/02 10:00:46;;;;;;;2.42;1.83;;;-11.20;99.90;;;;;;5093209;28;20067;-62
2021/12/02 10:06:16;;;;;;;;;;;-11.10;99.90;;;;;;5093791;28;20383;-63
2021/12/02 10:08:52;;;;;;;2.20;1.98;;;-11.10;99.90;;;;;;5093262;28;20256;-63
2021/12/02 10:11:40;;;;;;;7.00;3.20;;;-11.00;99.90;;;;;;5093513;28;20423;-63
2021/12/02 10:14:44;;;;;;;3.22;2.17;;;-10.90;99.90;;;;;;5093500;28;20032;-62
2021/12/02 10:17:27;;;;;;;1.63;1.52;;;-10.90;99.90;;;;;;5093269;28;20042;-62
2021/12/02 10:20:25;;;;;;;3.92;2.05;;;-11.00;99.90;;;;;;5093162;28;20361;-62
2021/12/02 10:23:19;;;;;;;2.25;1.90;;;-11.00;99.90;;;;;;5091804;28;20038;-63
2021/12/02 10:25:58;;;;;;;6.28;2.00;;;-11.00;99.90;;;;;;5092885;28;20074;-63
2021/12/02 10:28:31;;;;;;;4.78;2.58;;;-11.00;99.90;;;;;;5093320;28;20436;-63
2021/12/02 10:31:04;;;;;;;3.28;2.38;;;-11.00;99.90;;;;;;5092875;28;20020;-62
2021/12/02 10:33:35;;;;;;;7.47;2.10;;;-11.00;99.90;;;;;;5092882;28;20035;-63
2021/12/02 10:36:03;;;;;;;2.05;1.60;;;-11.00;99.90;;;;;;5092475;28;20024;-63
2021/12/02 10:38:44;;;;;;;4.15;2.65;;;-10.10;99.90;;;;;;5090990;28;20042;-62
2021/12/02 10:41:17;;;;;;;6.45;2.00;;;-10.20;99.90;;;;;;5092400;28;20028;-63
2021/12/02 10:44:04;;;;;;;2.65;1.80;;;-10.40;99.90;;;;;;5092683;28;20511;-63
2021/12/02 10:46:30;;;;;;;2.65;1.80;;;-10.60;99.90;;;;;;5092587;28;20039;-63
2021/12/02 10:48:56;;;;;;;2.25;1.80;;;-10.70;99.90;;;;;;5092703;28;20020;-62
2021/12/02 10:51:45;;;;;;;2.58;1.83;;;-10.70;99.90;;;;;;5092181;28;20035;-63
2021/12/02 10:54:14;;;;;;;3.30;1.73;;;-10.10;99.90;;;;;;5092657;28;20025;-63
2021/12/02 10:56:46;;;;;;;3.55;2.00;;;-10.20;99.90;;;;;;5091967;28;20020;-63
2021/12/02 10:59:26;;;;;;;4.97;1.98;;;-10.40;99.90;;;;;;5093823;28;20044;-63
2021/12/02 11:02:01;;;;;;;2.53;2.00;;;-10.20;99.90;;;;;;5092670;28;20039;-64
2021/12/02 11:04:34;;;;;;;3.55;1.70;;;-10.10;99.90;;;;;;5091551;28;20024;-62
2021/12/02 11:07:01;;;;;;;1.88;1.77;;;-10.40;99.90;;;;;;5096262;28;20044;-63
2021/12/02 11:09:28;;;;;;;3.40;1.60;;;-10.60;99.90;;;;;;5112480;28;20107;-62
2021/12/02 11:12:28;;;;;;;4.45;1.92;;;-10.60;99.90;;;;;;5112397;27;20032;-63
2021/12/02 11:15:01;;;;;;;1.63;1.52;;;-10.70;99.90;;;;;;5078282;28;20039;-63
2021/12/02 11:17:30;;;;;;;7.03;1.75;;;-10.80;99.90;;;;;;5112673;28;20387;-63
2021/12/02 11:19:57;;;;;;;5.18;1.95;;;-10.80;99.90;;;;;;5112210;28;20020;-63
2021/12/02 11:22:24;;;;;;;2.72;1.58;;;-10.90;99.90;;;;;;5112778;28;20031;-63
2021/12/02 11:24:51;;;;;;;2.65;1.83;;;-10.90;99.90;;;;;;5112235;28;20027;-63
2021/12/02 11:27:27;;;;;;;8.05;2.10;;;-10.90;99.90;;;;;;5109961;28;20035;-62
2021/12/02 11:30:19;;;;;;;3.38;1.95;;;-10.90;99.90;;;;;;5092068;28;20285;-63
2021/12/02 11:32:48;;;;;;;1.48;1.38;;;-11.00;99.90;;;;;;5091916;28;20107;-62
2021/12/02 11:35:17;;;;;;;2.85;1.98;;;-10.80;99.90;;;;;;5092072;28;20036;-63
2021/12/02 11:37:50;;;;;;;2.33;1.52;;;-9.60;99.90;;;;;;5091889;28;20464;-63
2021/12/02 11:40:20;;;;;;;2.70;1.90;;;-7.80;99.90;;;;;;5091958;28;20024;-63
2021/12/02 11:42:47;;;;;;;6.68;1.67;;;-7.60;99.90;;;;;;5091904;28;20492;-62
2021/12/02 11:45:15;;;;;;;1.50;1.40;;;-8.60;99.90;;;;;;5091818;28;20377;-63
2021/12/02 11:47:41;;;;;;;3.47;1.50;;;-9.30;99.90;;;;;;5091918;28;20035;-63
2021/12/02 11:50:09;;;;;;;2.33;1.50;;;-9.60;99.90;;;;;;5091862;28;20494;-62
2021/12/02 11:52:37;;;;;;;2.58;2.15;;;-9.70;99.90;;;;;;5091638;28;20028;-63
2021/12/02 11:55:09;;;;;;;2.78;2.00;;;-9.80;99.90;;;;;;5091782;28;20464;-63
2021/12/02 11:57:35;;;;;;;2.55;1.90;;;-9.90;99.90;;;;;;5091757;28;20033;-63
2021/12/02 12:00:06;;;;;;;3.53;1.70;;;-9.90;99.90;;;;;;5091489;28;20085;-63
2021/12/02 12:02:32;;;;;;;3.95;1.48;;;-10.00;99.90;;;;;;5091742;28;20054;-63
2021/12/02 12:05:03;;;;;;;1.73;1.60;;;-10.00;99.90;;;;;;5091499;28;20036;-63
2021/12/02 12:07:46;;;;;;;3.10;1.98;;;-10.00;99.90;;;;;;5092062;28;20094;-63
2021/12/02 12:10:17;;;;;;;2.65;1.73;;;-10.10;99.90;;;;;;5091703;28;20519;-63
2021/12/02 12:12:44;;;;;;;7.03;2.55;;;-10.10;99.90;;;;;;5091639;28;20051;-63
2021/12/02 12:15:33;;;;;;;3.08;1.50;;;-10.20;99.90;;;;;;5091643;28;20026;-63
2021/12/02 12:18:00;;;;;;;2.80;1.67;;;-10.20;99.90;;;;;;5095383;28;20040;-63
2021/12/02 12:20:50;;;;;;;2.03;1.67;;;-10.30;99.90;;;;;;5095756;28;20528;-63
2021/12/02 12:23:47;;;;;;;2.00;1.67;;;-10.30;99.90;;;;;;5095867;28;20490;-63
2021/12/02 12:26:18;;;;;;;4.50;1.65;;;-10.20;99.90;;;;;;5095706;28;20073;-63
2021/12/02 12:29:12;;;;;;;3.92;2.10;;;-9.50;99.90;;;;;;5095405;28;20070;-63
2021/12/02 12:31:48;;;;;;;3.55;1.88;;;-7.90;99.90;;;;;;5093556;28;20036;-64
2021/12/02 12:35:13;;;;;;;5.28;1.98;;;-8.20;99.90;;;;;;5095219;28;20035;-62
2021/12/02 12:37:26;;;;;;;3.03;1.67;;;-8.70;99.90;;;;;;5094686;28;20517;-63
2021/12/02 12:40:08;;;;;;;2.72;1.67;;;-8.90;99.90;;;;;;5095074;28;20099;-63
2021/12/02 12:42:37;;;;;;;1.25;1.15;;;-9.10;99.90;;;;;;5095112;28;20059;-63
2021/12/02 12:45:06;;;;;;;3.47;1.65;;;-7.50;99.90;;;;;;5095224;28;20425;-63
2021/12/02 12:47:41;;;;;;;2.78;1.83;;;-5.60;99.90;;;;;;5095295;28;20047;-64
2021/12/02 12:50:34;;;;;;;5.00;1.58;;;-6.20;99.90;;;;;;5094799;28;20055;-63
2021/12/02 12:53:07;;;;;;;1.83;1.73;;;-7.10;99.90;;;;;;5094941;28;20019;-63
2021/12/02 12:55:39;;;;;;;2.45;1.67;;;-7.40;99.90;;;;;;5094917;28;20387;-63
2021/12/02 12:58:12;;;;;;;4.35;1.83;;;-6.30;99.90;;;;;;5094807;28;20119;-63
2021/12/02 13:00:45;;;;;;;2.95;1.48;;;-6.50;99.90;;;;;;5093318;28;20044;-63
2021/12/02 13:03:26;;;;;;;1.98;1.77;;;-7.20;99.90;;;;;;5093788;28;20035;-63
2021/12/02 13:05:58;;;;;;;2.00;1.50;;;-7.70;99.90;;;;;;5093357;28;20035;-63
2021/12/02 13:08:38;;;;;;;3.85;1.90;;;-8.20;99.90;;;;;;5094663;28;20019;-63
2021/12/02 13:11:16;;;;;;;2.92;1.63;;;-8.50;99.90;;;;;;5094275;28;20034;-63
2021/12/02 13:13:43;;;;;;;2.53;1.65;;;-8.70;99.90;;;;;;5094261;28;20039;-64
2021/12/02 13:16:18;;;;;;;1.80;1.63;;;-8.90;99.90;;;;;;5094517;28;20032;-63
2021/12/02 13:18:54;;;;;;;2.25;1.90;;;-8.90;99.90;;;;;;5094282;28;20020;-63
2021/12/02 13:21:29;;;;;;;3.35;1.77;;;-9.00;99.90;;;;;;5094398;28;20418;-63
2021/12/02 13:23:56;;;;;;;2.65;1.55;;;-9.10;99.90;;;;;;5094503;28;20395;-62
2021/12/02 13:26:25;;;;;;;2.50;1.67;;;-9.10;99.90;;;;;;5094102;28;20105;-64
2021/12/02 13:28:54;;;;;;;3.35;1.80;;;-6.90;99.90;;;;;;5092682;28;20032;-64
2021/12/02 13:31:22;;;;;;;2.17;1.55;;;-6.40;99.90;;;;;;5094984;28;20032;-64
2021/12/02 13:33:50;;;;;;;1.52;1.42;;;-7.20;99.90;;;;;;5093980;28;20024;-64
2021/12/02 13:36:19;;;;;;;1.55;1.42;;;-7.80;99.90;;;;;;5093982;28;20021;-64
2021/12/02 13:39:01;;;;;;;3.50;1.60;;;-8.30;99.90;;;;;;5094087;28;20061;-64